createdAt,value
2019-03-09T00:00:46.022Z,12.14
2019-03-09T00:03:16.520Z,12.20
2019-03-09T00:05:46.919Z,12.13
2019-03-09T00:08:17.439Z,12.12
2019-03-09T00:10:47.956Z,12.05
2019-03-09T00:13:18.530Z,11.84
2019-03-09T00:15:48.936Z,11.96
2019-03-09T00:18:19.359Z,12.00
2019-03-09T00:20:49.801Z,11.91
2019-03-09T00:23:45.278Z,11.84
2019-03-09T00:26:34.420Z,11.78
2019-03-09T00:29:12.887Z,11.69
2019-03-09T00:31:48.294Z,11.68
2019-03-09T00:34:18.658Z,11.62
2019-03-09T00:36:49.051Z,11.64
2019-03-09T00:39:19.521Z,11.69
2019-03-09T00:41:50.142Z,11.63
2019-03-09T00:44:20.505Z,11.61
2019-03-09T00:46:51.014Z,11.58
2019-03-09T00:49:21.519Z,11.61
2019-03-09T00:51:51.987Z,11.64
2019-03-09T00:54:22.362Z,11.68
2019-03-09T00:56:53.155Z,11.77
2019-03-09T00:59:23.532Z,11.76
2019-03-09T01:01:53.968Z,11.73
2019-03-09T01:04:24.400Z,11.84
2019-03-09T01:06:54.782Z,11.90
2019-03-09T01:09:25.342Z,11.92
2019-03-09T01:11:55.788Z,11.98
2019-03-09T01:14:26.379Z,11.99
2019-03-09T01:16:56.873Z,12.01
2019-03-09T01:19:27.373Z,12.03
2019-03-09T01:21:57.815Z,12.02
2019-03-09T01:24:28.203Z,12.10
2019-03-09T01:26:58.760Z,12.10
2019-03-09T01:29:29.325Z,12.04
2019-03-09T01:31:59.718Z,12.07
2019-03-09T01:34:30.545Z,12.32
2019-03-09T01:37:00.964Z,12.68
2019-03-09T01:39:31.672Z,13.28
2019-03-09T01:42:02.125Z,13.67
2019-03-09T01:44:32.544Z,13.88
2019-03-09T01:47:03.162Z,14.08
2019-03-09T01:49:33.593Z,14.25
2019-03-09T01:52:04.121Z,14.34
2019-03-09T01:54:34.798Z,14.48
2019-03-09T01:57:05.192Z,14.54
2019-03-09T01:59:35.688Z,14.63
2019-03-09T02:02:06.162Z,14.80
2019-03-09T02:04:36.574Z,14.84
2019-03-09T02:07:07.010Z,14.98
2019-03-09T02:09:37.382Z,15.01
2019-03-09T02:12:07.903Z,15.19
2019-03-09T02:14:38.360Z,15.31
2019-03-09T02:17:08.706Z,15.36
2019-03-09T02:19:39.152Z,15.33
2019-03-09T02:22:09.744Z,15.34
2019-03-09T02:24:40.182Z,15.34
2019-03-09T02:27:10.914Z,15.31
2019-03-09T02:29:41.422Z,15.30
2019-03-09T02:32:11.771Z,15.28
2019-03-09T02:34:42.206Z,15.15
2019-03-09T02:37:12.672Z,14.98
2019-03-09T02:39:47.981Z,14.88
2019-03-09T02:42:18.594Z,14.75
2019-03-09T02:44:48.954Z,14.61
2019-03-09T02:47:19.441Z,14.51
2019-03-09T02:49:49.919Z,14.47
2019-03-09T02:52:20.276Z,14.48
2019-03-09T02:54:50.564Z,14.45
2019-03-09T02:57:20.974Z,14.49
2019-03-09T02:59:51.401Z,14.49
2019-03-09T03:02:28.545Z,14.48
2019-03-09T03:04:59.082Z,14.38
2019-03-09T03:07:29.530Z,14.25
2019-03-09T03:09:59.979Z,14.19
2019-03-09T03:12:30.396Z,14.03
2019-03-09T03:15:01.029Z,13.90
2019-03-09T03:17:31.453Z,13.82
2019-03-09T03:20:01.823Z,13.79
2019-03-09T03:22:32.362Z,13.69
2019-03-09T03:25:02.985Z,13.65
2019-03-09T03:27:33.618Z,13.81
2019-03-09T03:30:03.952Z,13.93
2019-03-09T03:32:36.621Z,13.90
2019-03-09T03:35:07.977Z,13.94
2019-03-09T03:37:38.535Z,14.15
2019-03-09T03:40:09.436Z,14.22
2019-03-09T03:42:40.138Z,14.39
2019-03-09T03:45:11.105Z,14.56
2019-03-09T03:47:41.671Z,14.69
2019-03-09T03:50:12.575Z,14.85
2019-03-09T03:52:43.051Z,15.01
2019-03-09T03:55:14.062Z,15.17
2019-03-09T03:57:44.506Z,15.23
2019-03-09T04:00:15.298Z,15.27
2019-03-09T04:02:45.836Z,15.34
2019-03-09T04:05:16.557Z,15.45
2019-03-09T04:07:47.314Z,15.48
2019-03-09T04:10:18.037Z,15.51
2019-03-09T04:12:48.966Z,15.57
2019-03-09T04:15:19.504Z,15.60
2019-03-09T04:17:49.926Z,15.61
2019-03-09T04:20:23.309Z,15.62
2019-03-09T04:22:53.853Z,15.64
2019-03-09T04:25:24.473Z,15.70
2019-03-09T04:27:55.192Z,15.78
2019-03-09T04:30:25.746Z,15.82
2019-03-09T04:32:57.580Z,15.91
2019-03-09T04:35:28.230Z,15.98
2019-03-09T04:37:58.740Z,15.99
2019-03-09T04:40:29.379Z,16.02
2019-03-09T04:43:00.080Z,16.05
2019-03-09T04:45:30.700Z,16.05
2019-03-09T04:48:01.216Z,16.05
2019-03-09T04:50:31.847Z,16.06
2019-03-09T04:53:02.438Z,16.14
2019-03-09T04:55:32.841Z,16.12
2019-03-09T04:58:03.439Z,16.13
2019-03-09T05:00:33.817Z,16.11
2019-03-09T05:03:04.310Z,16.09
2019-03-09T05:05:34.720Z,16.08
2019-03-09T05:08:34.665Z,16.00
2019-03-09T05:11:09.543Z,15.94
2019-03-09T05:14:12.917Z,15.83
2019-03-09T05:16:43.591Z,15.74
2019-03-09T05:19:14.066Z,15.55
2019-03-09T05:21:44.711Z,15.50
2019-03-09T05:24:15.132Z,15.47
2019-03-09T05:26:46.053Z,15.44
2019-03-09T05:29:16.581Z,15.44
2019-03-09T05:31:46.976Z,15.45
2019-03-09T05:34:17.188Z,15.48
2019-03-09T05:36:47.866Z,15.51
2019-03-09T05:39:18.455Z,15.58
2019-03-09T05:41:49.160Z,15.60
2019-03-09T05:44:19.649Z,15.62
2019-03-09T05:46:50.001Z,15.66
2019-03-09T05:49:20.513Z,15.74
2019-03-09T05:52:26.179Z,15.82
2019-03-09T05:54:56.458Z,15.87
2019-03-09T05:57:26.815Z,15.88
2019-03-09T05:59:57.328Z,15.94
2019-03-09T06:02:27.862Z,16.00
2019-03-09T06:04:58.284Z,16.01
2019-03-09T06:07:28.555Z,16.06
2019-03-09T06:09:59.010Z,16.03
2019-03-09T06:12:29.468Z,16.09
2019-03-09T06:14:59.740Z,16.20
2019-03-09T06:17:30.099Z,16.28
2019-03-09T06:20:00.485Z,16.44
2019-03-09T06:22:30.909Z,16.59
2019-03-09T06:25:01.401Z,16.74
2019-03-09T06:27:32.960Z,16.90
2019-03-09T06:30:03.416Z,16.99
2019-03-09T06:33:09.017Z,17.08
2019-03-09T06:35:39.370Z,17.14
2019-03-09T06:38:32.866Z,17.21
2019-03-09T06:41:03.450Z,17.28
2019-03-09T06:43:33.903Z,17.26
2019-03-09T06:46:04.128Z,17.29
2019-03-09T06:48:34.489Z,17.41
2019-03-09T06:51:04.852Z,17.51
2019-03-09T06:53:37.620Z,17.65
2019-03-09T06:56:08.194Z,17.78
2019-03-09T06:58:38.547Z,17.96
2019-03-09T07:01:22.733Z,18.08
2019-03-09T07:03:53.295Z,18.18
2019-03-09T07:06:24.499Z,18.44
2019-03-09T07:08:54.914Z,18.71
2019-03-09T07:11:25.324Z,19.21
2019-03-09T07:13:55.704Z,20.00
2019-03-09T07:16:26.169Z,20.55
2019-03-09T07:18:57.640Z,21.11
2019-03-09T07:21:28.084Z,21.62
2019-03-09T07:23:58.490Z,22.43
2019-03-09T07:26:29.131Z,22.71
2019-03-09T07:28:59.587Z,22.69
2019-03-09T07:31:29.851Z,22.84
2019-03-09T07:34:28.103Z,23.33
2019-03-09T07:36:58.501Z,23.65
2019-03-09T07:39:28.998Z,23.51
2019-03-09T07:41:59.444Z,23.77
2019-03-09T07:44:29.823Z,23.91
2019-03-09T07:47:00.215Z,23.66
2019-03-09T07:49:30.575Z,23.31
2019-03-09T07:52:01.036Z,23.09
2019-03-09T07:54:31.531Z,23.18
2019-03-09T07:57:01.888Z,23.19
2019-03-09T07:59:32.185Z,23.23
2019-03-09T08:02:02.585Z,23.44
2019-03-09T08:04:33.065Z,24.04
2019-03-09T08:07:03.395Z,24.64
2019-03-09T08:09:33.694Z,24.35
2019-03-09T08:12:04.283Z,24.54
2019-03-09T08:14:34.762Z,24.69
2019-03-09T08:17:05.145Z,24.86
2019-03-09T08:19:35.349Z,24.90
2019-03-09T08:22:05.740Z,24.49
2019-03-09T08:24:36.000Z,24.34
2019-03-09T08:27:06.077Z,24.79
2019-03-09T08:29:36.605Z,25.43
2019-03-09T08:32:06.846Z,25.60
2019-03-09T08:34:37.054Z,25.16
2019-03-09T08:37:07.527Z,24.62
2019-03-09T08:39:38.002Z,24.47
2019-03-09T08:42:08.522Z,24.36
2019-03-09T08:44:38.925Z,24.73
2019-03-09T08:47:09.261Z,25.43
2019-03-09T08:49:39.563Z,26.06
2019-03-09T08:52:09.838Z,26.58
2019-03-09T08:54:40.175Z,27.21
2019-03-09T08:57:10.656Z,27.89
2019-03-09T08:59:41.093Z,27.91
2019-03-09T09:02:11.399Z,27.73
2019-03-09T09:04:41.869Z,28.32
2019-03-09T09:07:12.252Z,28.00
2019-03-09T09:09:42.623Z,28.47
2019-03-09T09:12:13.092Z,28.88
2019-03-09T09:14:43.314Z,28.70
2019-03-09T09:17:13.576Z,29.33
2019-03-09T09:19:43.839Z,29.85
2019-03-09T09:22:14.262Z,29.60
2019-03-09T09:24:44.546Z,30.02
2019-03-09T09:27:14.771Z,31.46
2019-03-09T09:29:45.025Z,32.83
2019-03-09T09:32:15.390Z,33.71
2019-03-09T09:34:45.709Z,34.07
2019-03-09T09:37:16.046Z,34.34
2019-03-09T09:39:46.435Z,34.55
2019-03-09T09:42:16.834Z,35.32
2019-03-09T09:44:47.140Z,35.85
2019-03-09T09:47:17.311Z,35.83
2019-03-09T09:49:47.708Z,36.25
2019-03-09T09:52:17.978Z,36.62
2019-03-09T09:54:48.054Z,36.67
2019-03-09T09:57:18.435Z,35.89
2019-03-09T09:59:48.501Z,36.68
2019-03-09T10:02:18.934Z,37.49
2019-03-09T10:04:49.325Z,38.48
2019-03-09T10:07:19.622Z,38.95
2019-03-09T10:09:49.455Z,36.94
2019-03-09T10:12:19.948Z,37.68
2019-03-09T10:14:50.109Z,39.12
2019-03-09T10:17:19.962Z,39.01
2019-03-09T10:19:50.238Z,37.40
2019-03-09T10:22:20.492Z,37.35
2019-03-09T10:24:50.756Z,36.68
2019-03-09T10:27:21.042Z,36.97
2019-03-09T10:29:51.051Z,38.00
2019-03-09T10:32:20.959Z,38.98
2019-03-09T10:34:51.455Z,37.72
2019-03-09T10:37:21.798Z,38.26
2019-03-09T10:39:51.952Z,39.14
2019-03-09T10:42:22.493Z,40.03
2019-03-09T10:44:53.039Z,40.31
2019-03-09T10:47:23.481Z,41.11
2019-03-09T10:49:53.454Z,42.04
2019-03-09T10:52:23.242Z,42.43
2019-03-09T10:54:53.629Z,43.44
2019-03-09T10:57:23.893Z,44.32
2019-03-09T10:59:53.631Z,44.79
2019-03-09T11:02:23.659Z,45.13
2019-03-09T11:04:53.635Z,45.21
2019-03-09T11:07:23.721Z,45.09
2019-03-09T11:09:53.415Z,45.37
2019-03-09T11:12:25.090Z,45.20
2019-03-09T11:14:54.675Z,45.42
2019-03-09T11:17:24.740Z,45.81
2019-03-09T11:19:54.396Z,46.68
2019-03-09T11:22:24.028Z,47.30
2019-03-09T11:25:03.158Z,47.69
2019-03-09T11:27:26.577Z,48.06
2019-03-09T11:29:57.025Z,47.81
2019-03-09T11:32:27.333Z,47.61
2019-03-09T11:34:57.677Z,47.77
2019-03-09T11:37:28.078Z,47.46
2019-03-09T11:39:58.595Z,47.34
2019-03-09T11:42:28.832Z,47.20
2019-03-09T11:44:59.174Z,47.17
2019-03-09T11:47:29.664Z,47.19
2019-03-09T11:50:00.117Z,47.58
2019-03-09T11:52:30.632Z,47.52
2019-03-09T11:55:01.609Z,47.98
2019-03-09T11:57:32.088Z,48.40
2019-03-09T12:00:02.897Z,47.89
2019-03-09T12:02:38.776Z,47.58
2019-03-09T12:05:05.330Z,47.14
2019-03-09T12:07:35.712Z,45.83
2019-03-09T12:10:06.319Z,44.07
2019-03-09T12:12:36.671Z,42.56
2019-03-09T12:15:07.202Z,40.54
2019-03-09T12:17:37.440Z,38.31
2019-03-09T12:20:08.364Z,36.54
2019-03-09T12:22:38.797Z,35.34
2019-03-09T12:25:09.922Z,35.01
2019-03-09T12:27:40.183Z,33.70
2019-03-09T12:30:12.445Z,32.23
2019-03-09T12:32:42.880Z,31.51
2019-03-09T12:35:13.329Z,32.04
2019-03-09T12:37:43.708Z,33.20
2019-03-09T12:40:15.692Z,33.49
2019-03-09T12:42:46.210Z,33.54
2019-03-09T12:45:17.043Z,33.22
2019-03-09T12:47:47.391Z,33.74
2019-03-09T12:50:18.530Z,32.34
2019-03-09T12:52:48.928Z,31.59
2019-03-09T12:55:19.228Z,30.66
2019-03-09T12:57:49.592Z,30.30
2019-03-09T13:00:20.045Z,30.57
2019-03-09T13:02:50.739Z,31.85
2019-03-09T13:05:21.159Z,32.79
2019-03-09T13:07:51.091Z,33.63
2019-03-09T13:10:21.678Z,33.26
2019-03-09T13:12:51.963Z,32.86
2019-03-09T13:15:22.339Z,32.58
2019-03-09T13:17:52.893Z,32.98
2019-03-09T13:20:23.323Z,34.08
2019-03-09T13:22:53.348Z,35.19
2019-03-09T13:25:23.556Z,35.10
2019-03-09T13:27:53.996Z,34.78
2019-03-09T13:30:24.476Z,35.12
2019-03-09T13:32:54.861Z,35.60
2019-03-09T13:35:25.243Z,35.20
2019-03-09T13:37:55.531Z,34.50
2019-03-09T13:40:25.998Z,33.69
2019-03-09T13:42:56.137Z,32.94
2019-03-09T13:45:26.514Z,32.38
2019-03-09T13:47:56.798Z,31.92
2019-03-09T13:50:26.840Z,31.64
2019-03-09T13:52:57.311Z,31.07
2019-03-09T13:55:27.453Z,30.72
2019-03-09T13:57:57.508Z,30.14
2019-03-09T14:00:27.967Z,29.80
2019-03-09T14:02:58.422Z,29.53
2019-03-09T14:05:28.861Z,29.18
2019-03-09T14:07:59.189Z,28.95
2019-03-09T14:10:29.524Z,28.78
2019-03-09T14:12:59.945Z,28.51
2019-03-09T14:15:30.466Z,28.33
2019-03-09T14:18:00.703Z,28.14
2019-03-09T14:20:31.003Z,28.06
2019-03-09T14:23:01.513Z,27.69
2019-03-09T14:25:31.868Z,27.60
2019-03-09T14:28:02.100Z,27.43
2019-03-09T14:30:32.517Z,27.21
2019-03-09T14:33:02.762Z,26.95
2019-03-09T14:35:32.983Z,26.84
2019-03-09T14:38:03.395Z,26.67
2019-03-09T14:40:33.719Z,26.51
2019-03-09T14:43:04.132Z,26.34
2019-03-09T14:45:34.438Z,26.20
2019-03-09T14:48:04.895Z,26.03
2019-03-09T14:50:35.236Z,25.87
2019-03-09T14:53:05.511Z,25.80
2019-03-09T14:55:35.926Z,25.39
2019-03-09T14:58:06.304Z,25.22
2019-03-09T15:00:36.792Z,25.00
2019-03-09T15:03:07.469Z,24.86
2019-03-09T15:05:37.766Z,24.76
2019-03-09T15:08:08.247Z,24.61
2019-03-09T15:10:38.661Z,24.42
2019-03-09T15:13:09.186Z,24.33
2019-03-09T15:15:39.631Z,24.18
2019-03-09T15:18:09.938Z,24.04
2019-03-09T15:20:40.281Z,23.92
2019-03-09T15:23:10.978Z,23.80
2019-03-09T15:25:41.396Z,23.65
2019-03-09T15:28:11.630Z,23.45
2019-03-09T15:30:42.074Z,23.35
2019-03-09T15:33:12.510Z,23.22
2019-03-09T15:35:42.912Z,22.94
2019-03-09T15:38:13.225Z,22.77
2019-03-09T15:40:43.548Z,22.77
2019-03-09T15:43:14.088Z,22.68
2019-03-09T15:45:44.500Z,22.50
2019-03-09T15:48:14.867Z,22.29
2019-03-09T15:50:45.386Z,22.06
2019-03-09T15:53:15.805Z,21.89
2019-03-09T15:55:46.281Z,21.73
2019-03-09T15:58:17.442Z,21.55
2019-03-09T16:00:47.910Z,21.35
2019-03-09T16:03:18.293Z,21.20
2019-03-09T16:05:48.657Z,21.14
2019-03-09T16:08:19.263Z,21.15
2019-03-09T16:10:50.243Z,21.10
2019-03-09T16:13:20.768Z,21.07
2019-03-09T16:15:51.055Z,20.95
2019-03-09T16:18:21.614Z,20.78
2019-03-09T16:20:52.113Z,20.74
2019-03-09T16:23:23.228Z,20.66
2019-03-09T16:25:53.617Z,20.66
2019-03-09T16:28:24.161Z,20.58
2019-03-09T16:30:54.576Z,20.46
2019-03-09T16:33:25.115Z,20.40
2019-03-09T16:35:55.675Z,20.28
2019-03-09T16:38:26.134Z,20.19
2019-03-09T16:40:56.655Z,20.09
2019-03-09T16:43:27.209Z,20.01
2019-03-09T16:45:57.881Z,20.01
2019-03-09T16:48:30.780Z,19.93
2019-03-09T16:51:01.298Z,19.87
2019-03-09T16:53:32.309Z,19.82
2019-03-09T16:56:02.872Z,19.76
2019-03-09T16:58:33.195Z,19.71
2019-03-09T17:01:03.604Z,19.66
2019-03-09T17:03:37.652Z,19.63
2019-03-09T17:06:08.115Z,19.61
2019-03-09T17:08:38.598Z,19.58
2019-03-09T17:11:09.005Z,19.58
2019-03-09T17:13:41.878Z,19.53
2019-03-09T17:16:13.597Z,19.49
2019-03-09T17:18:44.002Z,19.44
2019-03-09T17:21:14.365Z,19.37
2019-03-09T17:23:45.022Z,19.37
2019-03-09T17:26:16.740Z,19.34
2019-03-09T17:28:47.391Z,19.32
2019-03-09T17:31:17.810Z,19.29
2019-03-09T17:33:48.265Z,19.25
2019-03-09T17:36:18.944Z,19.21
2019-03-09T17:38:52.226Z,19.14
2019-03-09T17:41:25.341Z,19.12
2019-03-09T17:43:55.872Z,19.12
2019-03-09T17:46:26.396Z,19.05
2019-03-09T17:48:59.892Z,19.03
2019-03-09T17:51:30.656Z,18.99
2019-03-09T17:54:01.339Z,18.92
2019-03-09T17:56:33.933Z,18.90
2019-03-09T17:59:04.659Z,18.88
2019-03-09T18:01:35.271Z,18.90
2019-03-09T18:04:06.165Z,18.87
2019-03-09T18:06:36.607Z,18.88
2019-03-09T18:09:08.831Z,18.88
2019-03-09T18:11:40.730Z,18.84
2019-03-09T18:14:11.128Z,18.83
2019-03-09T18:16:41.608Z,18.84
2019-03-09T18:19:12.148Z,18.83
2019-03-09T18:21:42.699Z,18.84
2019-03-09T18:24:13.475Z,18.86
2019-03-09T18:26:43.989Z,18.88
2019-03-09T18:29:14.556Z,18.89
2019-03-09T18:31:45.007Z,18.88
2019-03-09T18:34:15.792Z,18.89
2019-03-09T18:36:46.254Z,18.96
2019-03-09T18:39:16.858Z,18.96
2019-03-09T18:41:47.550Z,18.94
2019-03-09T18:44:18.133Z,18.96
2019-03-09T18:46:48.622Z,18.95
2019-03-09T18:49:19.026Z,18.98
2019-03-09T18:51:49.497Z,18.96
2019-03-09T18:54:19.964Z,18.95
2019-03-09T18:56:50.601Z,18.95
2019-03-09T18:59:21.529Z,18.96
2019-03-09T19:01:53.601Z,18.96
2019-03-09T19:04:24.216Z,18.93
2019-03-09T19:06:54.759Z,18.87
2019-03-09T19:09:27.317Z,18.86
2019-03-09T19:11:57.831Z,18.87
2019-03-09T19:14:28.773Z,18.87
2019-03-09T19:16:59.312Z,18.87
2019-03-09T19:19:29.878Z,18.84
2019-03-09T19:22:00.377Z,18.83
2019-03-09T19:24:30.853Z,18.83
2019-03-09T19:27:01.214Z,18.80
2019-03-09T19:29:31.610Z,18.81
2019-03-09T19:32:02.111Z,18.80
2019-03-09T19:34:32.458Z,18.83
2019-03-09T19:37:02.897Z,18.80
2019-03-09T19:39:33.420Z,18.82
2019-03-09T19:42:03.974Z,18.85
2019-03-09T19:44:34.432Z,18.84
2019-03-09T19:47:04.857Z,18.82
2019-03-09T19:49:35.402Z,18.79
2019-03-09T19:52:07.464Z,18.74
2019-03-09T19:54:37.959Z,18.64
2019-03-09T19:57:08.484Z,18.53
2019-03-09T19:59:38.863Z,18.47
2019-03-09T20:02:09.316Z,18.47
2019-03-09T20:04:39.778Z,18.41
2019-03-09T20:07:10.313Z,18.43
2019-03-09T20:09:40.827Z,18.49
2019-03-09T20:12:11.203Z,18.41
2019-03-09T20:14:41.722Z,18.34
2019-03-09T20:17:12.165Z,18.33
2019-03-09T20:19:42.524Z,18.29
2019-03-09T20:22:12.869Z,18.28
2019-03-09T20:24:43.279Z,18.19
2019-03-09T20:27:13.768Z,18.08
2019-03-09T20:29:44.129Z,17.96
2019-03-09T20:32:14.650Z,17.84
2019-03-09T20:34:45.061Z,17.58
2019-03-09T20:37:15.471Z,17.21
2019-03-09T20:39:46.039Z,16.96
2019-03-09T20:42:16.572Z,16.78
2019-03-09T20:44:46.891Z,16.69
2019-03-09T20:47:17.315Z,16.60
2019-03-09T20:49:47.857Z,16.56
2019-03-09T20:52:18.262Z,16.50
2019-03-09T20:54:48.601Z,16.58
2019-03-09T20:57:18.867Z,16.56
2019-03-09T20:59:49.378Z,16.60
2019-03-09T21:02:19.840Z,16.69
2019-03-09T21:04:50.295Z,16.81
2019-03-09T21:07:20.727Z,16.92
2019-03-09T21:09:51.139Z,16.95
2019-03-09T21:12:21.629Z,16.93
2019-03-09T21:14:52.147Z,17.16
2019-03-09T21:17:22.609Z,17.20
2019-03-09T21:19:53.069Z,17.22
2019-03-09T21:22:23.566Z,17.17
2019-03-09T21:24:54.006Z,17.12
2019-03-09T21:27:24.460Z,17.03
2019-03-09T21:29:54.974Z,16.99
2019-03-09T21:32:25.362Z,16.96
2019-03-09T21:34:55.831Z,16.95
2019-03-09T21:37:27.015Z,16.83
2019-03-09T21:39:57.706Z,16.84
2019-03-09T21:42:28.053Z,16.82
2019-03-09T21:44:58.529Z,16.71
2019-03-09T21:47:28.988Z,16.60
2019-03-09T21:49:59.422Z,16.56
2019-03-09T21:52:29.917Z,16.66
2019-03-09T21:55:00.336Z,16.65
2019-03-09T21:57:30.712Z,16.67
2019-03-09T22:00:01.292Z,16.63
2019-03-09T22:02:31.764Z,16.56
2019-03-09T22:05:02.074Z,16.51
2019-03-09T22:07:32.470Z,16.49
2019-03-09T22:10:02.964Z,16.47
2019-03-09T22:12:33.452Z,16.40
2019-03-09T22:15:03.879Z,16.40
2019-03-09T22:17:34.370Z,16.39
2019-03-09T22:20:05.136Z,16.34
2019-03-09T22:22:35.584Z,16.34
2019-03-09T22:25:06.394Z,16.35
2019-03-09T22:27:36.588Z,16.35
2019-03-09T22:30:08.262Z,16.37
2019-03-09T22:32:38.797Z,16.34
2019-03-09T22:35:11.630Z,16.34
2019-03-09T22:37:41.946Z,16.32
2019-03-09T22:40:12.798Z,16.32
2019-03-09T22:42:43.162Z,16.23
2019-03-09T22:45:13.537Z,16.18
2019-03-09T22:47:44.151Z,16.18
2019-03-09T22:50:15.421Z,16.10
2019-03-09T22:52:45.983Z,16.15
2019-03-09T22:55:16.235Z,16.11
2019-03-09T22:57:46.708Z,16.04
2019-03-09T23:00:19.040Z,15.95
2019-03-09T23:02:49.633Z,15.81
2019-03-09T23:05:20.232Z,15.63
2019-03-09T23:07:50.689Z,15.44
2019-03-09T23:10:21.201Z,15.28
2019-03-09T23:12:51.711Z,15.15
2019-03-09T23:15:22.234Z,15.06
2019-03-09T23:17:52.903Z,14.90
2019-03-09T23:20:23.359Z,14.95
2019-03-09T23:22:53.746Z,15.04
2019-03-09T23:25:24.716Z,15.14
2019-03-09T23:27:55.108Z,15.32
2019-03-09T23:30:25.615Z,15.43
2019-03-09T23:32:55.962Z,15.56
2019-03-09T23:35:26.495Z,15.61
2019-03-09T23:37:56.995Z,15.50
2019-03-09T23:40:27.482Z,15.50
2019-03-09T23:42:57.813Z,15.44
2019-03-09T23:45:28.652Z,15.45
2019-03-09T23:47:59.479Z,15.57
2019-03-09T23:50:29.842Z,15.61
2019-03-09T23:53:00.289Z,15.57
2019-03-09T23:55:33.022Z,15.55
2019-03-09T23:58:03.421Z,15.49
